createdAt,value
2023-01-21T00:01:17.540Z,4.20
2023-01-21T00:03:47.465Z,4.10
2023-01-21T00:06:16.057Z,4.10
2023-01-21T00:08:44.460Z,4.10
2023-01-21T00:11:15.011Z,4.10
2023-01-21T00:13:44.015Z,4.00
2023-01-21T00:16:13.533Z,4.00
2023-01-21T00:18:42.511Z,3.90
2023-01-21T00:21:12.102Z,3.90
2023-01-21T00:23:40.466Z,3.80
2023-01-21T00:26:11.530Z,3.80
2023-01-21T00:28:41.677Z,3.80
2023-01-21T00:31:11.935Z,3.80
2023-01-21T00:33:40.200Z,3.70
2023-01-21T00:36:10.339Z,3.70
2023-01-21T00:38:40.253Z,3.70
2023-01-21T00:41:10.218Z,3.60
2023-01-21T00:43:39.416Z,3.60
2023-01-21T00:46:08.088Z,3.60
2023-01-21T00:48:36.642Z,3.60
2023-01-21T00:51:05.644Z,3.60
2023-01-21T00:53:35.302Z,3.50
2023-01-21T00:56:06.790Z,3.50
2023-01-21T00:58:35.569Z,3.50
2023-01-21T01:01:04.688Z,3.50
2023-01-21T01:03:33.726Z,3.60
2023-01-21T01:06:06.558Z,3.50
2023-01-21T01:08:35.079Z,3.50
2023-01-21T01:11:05.301Z,3.50
2023-01-21T01:13:35.375Z,3.50
2023-01-21T01:16:04.494Z,3.40
2023-01-21T01:18:34.663Z,3.40
2023-01-21T01:21:03.658Z,3.40
2023-01-21T01:23:32.158Z,3.30
2023-01-21T01:26:01.900Z,3.30
2023-01-21T01:28:32.188Z,3.30
2023-01-21T01:31:01.150Z,3.30
2023-01-21T01:33:29.481Z,3.30
2023-01-21T01:36:02.748Z,3.30
2023-01-21T01:38:30.972Z,3.20
2023-01-21T01:40:59.295Z,3.20
2023-01-21T01:43:29.059Z,3.20
2023-01-21T01:45:58.578Z,3.20
2023-01-21T01:48:29.819Z,3.20
2023-01-21T01:51:00.219Z,3.20
2023-01-21T01:53:29.070Z,3.20
2023-01-21T01:55:58.088Z,3.20
2023-01-21T01:58:26.385Z,3.20
2023-01-21T02:00:54.602Z,3.20
2023-01-21T02:03:41.902Z,3.20
2023-01-21T02:06:10.057Z,3.20
2023-01-21T02:08:38.482Z,3.20
2023-01-21T02:11:12.217Z,3.20
2023-01-21T02:13:41.594Z,3.20
2023-01-21T02:16:35.522Z,3.20
2023-01-21T02:19:31.705Z,3.30
2023-01-21T02:22:09.746Z,3.30
2023-01-21T02:25:14.186Z,3.30
2023-01-21T02:27:57.869Z,3.30
2023-01-21T02:31:14.055Z,3.30
2023-01-21T02:34:04.094Z,3.30
2023-01-21T02:36:42.093Z,3.30
2023-01-21T02:39:18.321Z,3.40
2023-01-21T02:41:58.168Z,3.30
2023-01-21T02:44:36.177Z,3.40
2023-01-21T02:47:13.093Z,3.40
2023-01-21T02:49:46.570Z,3.40
2023-01-21T02:52:19.319Z,3.40
2023-01-21T02:54:54.075Z,3.40
2023-01-21T02:57:40.380Z,3.40
2023-01-21T03:00:14.241Z,3.40
2023-01-21T03:03:00.493Z,3.40
2023-01-21T03:05:39.606Z,3.40
2023-01-21T03:08:13.818Z,3.40
2023-01-21T03:10:44.000Z,3.40
2023-01-21T03:13:38.715Z,3.40
2023-01-21T03:16:28.447Z,3.40
2023-01-21T03:18:58.760Z,3.40
2023-01-21T03:21:31.469Z,3.40
2023-01-21T03:24:00.542Z,3.40
2023-01-21T03:26:33.209Z,3.40
2023-01-21T03:29:07.271Z,3.40
2023-01-21T03:31:38.059Z,3.40
2023-01-21T03:34:09.546Z,3.40
2023-01-21T03:36:43.212Z,3.40
2023-01-21T03:39:19.377Z,3.40
2023-01-21T03:41:47.686Z,3.40
2023-01-21T03:44:15.951Z,3.40
2023-01-21T03:46:50.581Z,3.40
2023-01-21T03:49:23.818Z,3.30
2023-01-21T03:51:57.212Z,3.40
2023-01-21T03:54:25.664Z,3.40
2023-01-21T03:56:53.898Z,3.40
2023-01-21T03:59:22.017Z,3.40
2023-01-21T04:01:50.227Z,3.40
2023-01-21T04:04:18.407Z,3.30
2023-01-21T04:06:46.540Z,3.30
2023-01-21T04:09:16.141Z,3.30
2023-01-21T04:11:44.330Z,3.30
2023-01-21T04:14:12.729Z,3.20
2023-01-21T04:16:40.928Z,3.20
2023-01-21T04:19:09.106Z,3.20
2023-01-21T04:21:37.251Z,3.20
2023-01-21T04:24:05.890Z,3.20
2023-01-21T04:26:35.427Z,3.20
2023-01-21T04:29:03.713Z,3.10
2023-01-21T04:31:31.912Z,3.10
2023-01-21T04:34:00.213Z,3.10
2023-01-21T04:36:28.349Z,3.10
2023-01-21T04:38:56.508Z,3.10
2023-01-21T04:41:25.543Z,3.10
2023-01-21T04:43:55.387Z,3.00
2023-01-21T04:46:23.650Z,3.00
2023-01-21T04:48:51.870Z,3.10
2023-01-21T04:51:20.073Z,3.00
2023-01-21T04:53:48.261Z,3.00
2023-01-21T04:56:16.400Z,3.00
2023-01-21T04:58:44.586Z,3.00
2023-01-21T05:01:14.131Z,3.00
2023-01-21T05:03:42.318Z,3.00
2023-01-21T05:06:10.508Z,3.00
2023-01-21T05:08:38.691Z,3.00
2023-01-21T05:11:09.469Z,3.00
2023-01-21T05:13:37.675Z,3.00
2023-01-21T05:16:08.486Z,3.00
2023-01-21T05:18:38.125Z,3.00
2023-01-21T05:21:06.926Z,3.00
2023-01-21T05:23:35.287Z,3.00
2023-01-21T05:26:03.472Z,3.00
2023-01-21T05:28:31.642Z,3.00
2023-01-21T05:31:02.412Z,3.00
2023-01-21T05:33:32.174Z,3.00
2023-01-21T05:36:03.047Z,3.00
2023-01-21T05:38:31.530Z,2.90
2023-01-21T05:41:00.277Z,2.90
2023-01-21T05:43:28.923Z,2.90
2023-01-21T05:45:57.912Z,2.90
2023-01-21T05:48:26.348Z,2.90
2023-01-21T05:50:55.763Z,2.90
2023-01-21T05:53:26.429Z,2.90
2023-01-21T05:55:55.511Z,2.80
2023-01-21T05:58:24.586Z,2.80
2023-01-21T06:00:52.820Z,2.80
2023-01-21T06:03:21.401Z,2.80
2023-01-21T06:05:50.852Z,2.80
2023-01-21T06:08:19.420Z,2.80
2023-01-21T06:10:48.956Z,2.80
2023-01-21T06:13:17.674Z,2.80
2023-01-21T06:15:45.898Z,2.80
2023-01-21T06:18:14.058Z,2.80
2023-01-21T06:20:42.335Z,2.70
2023-01-21T06:23:10.491Z,2.70
2023-01-21T06:25:38.644Z,2.70
2023-01-21T06:28:08.234Z,2.80
2023-01-21T06:30:36.399Z,2.70
2023-01-21T06:33:04.599Z,2.80
2023-01-21T06:35:32.747Z,2.80
2023-01-21T06:38:00.888Z,2.80
2023-01-21T06:40:29.144Z,2.80
2023-01-21T06:42:57.295Z,2.80
2023-01-21T06:45:26.945Z,2.90
2023-01-21T06:47:55.124Z,2.90
2023-01-21T06:50:23.417Z,2.90
2023-01-21T06:52:51.570Z,2.90
2023-01-21T06:55:19.806Z,2.90
2023-01-21T06:57:47.959Z,2.90
2023-01-21T07:00:17.062Z,3.00
2023-01-21T07:02:46.835Z,3.00
2023-01-21T07:05:15.885Z,3.00
2023-01-21T07:07:44.313Z,3.10
2023-01-21T07:10:13.155Z,3.10
2023-01-21T07:12:41.296Z,3.10
2023-01-21T07:15:10.581Z,3.20
2023-01-21T07:17:38.719Z,3.20
2023-01-21T07:20:12.322Z,3.30
2023-01-21T07:22:40.791Z,3.30
2023-01-21T07:25:09.825Z,3.40
2023-01-21T07:27:38.909Z,3.40
2023-01-21T07:30:08.387Z,3.40
2023-01-21T07:32:36.526Z,3.50
2023-01-21T07:35:05.193Z,3.50
2023-01-21T07:37:34.726Z,3.50
2023-01-21T07:40:02.960Z,3.50
2023-01-21T07:42:31.119Z,3.60
2023-01-21T07:44:59.623Z,3.60
2023-01-21T07:47:27.809Z,3.70
2023-01-21T07:49:56.010Z,3.70
2023-01-21T07:52:24.153Z,3.70
2023-01-21T07:54:53.693Z,3.80
2023-01-21T07:57:21.847Z,3.80
2023-01-21T07:59:49.990Z,3.80
2023-01-21T08:02:18.251Z,3.90
2023-01-21T08:04:46.461Z,3.80
2023-01-21T08:07:14.663Z,3.90
2023-01-21T08:09:42.828Z,3.90
2023-01-21T08:12:12.824Z,3.90
2023-01-21T08:14:40.968Z,3.90
2023-01-21T08:17:09.116Z,3.90
2023-01-21T08:19:37.261Z,3.90
2023-01-21T08:22:05.385Z,3.90
2023-01-21T08:24:34.795Z,4.00
2023-01-21T08:27:02.962Z,4.00
2023-01-21T08:29:32.473Z,4.00
2023-01-21T08:32:00.621Z,4.00
2023-01-21T08:34:28.748Z,4.00
2023-01-21T08:36:56.895Z,4.00
2023-01-21T08:39:25.022Z,4.00
2023-01-21T08:41:53.188Z,4.00
2023-01-21T08:44:21.310Z,4.00
2023-01-21T08:46:51.212Z,4.00
2023-01-21T08:49:19.368Z,4.10
2023-01-21T08:51:47.862Z,4.10
2023-01-21T08:54:16.215Z,4.10
2023-01-21T08:56:44.358Z,4.10
2023-01-21T08:59:12.981Z,4.10
2023-01-21T09:01:41.727Z,4.10
2023-01-21T09:04:11.533Z,4.10
2023-01-21T09:06:39.658Z,4.20
2023-01-21T09:09:07.821Z,4.20
2023-01-21T09:11:35.972Z,4.20
2023-01-21T09:14:04.396Z,4.30
2023-01-21T09:16:32.996Z,4.30
2023-01-21T09:19:01.472Z,4.40
2023-01-21T09:21:31.309Z,4.40
2023-01-21T09:23:59.489Z,4.50
2023-01-21T09:26:27.894Z,4.50
2023-01-21T09:28:57.224Z,4.50
2023-01-21T09:31:27.170Z,4.50
2023-01-21T09:33:57.119Z,4.60
2023-01-21T09:36:27.685Z,4.60
2023-01-21T09:38:57.325Z,4.60
2023-01-21T09:41:28.745Z,4.60
2023-01-21T09:44:06.000Z,4.60
2023-01-21T09:46:39.995Z,4.60
2023-01-21T09:49:15.823Z,4.70
2023-01-21T09:52:00.679Z,4.70
2023-01-21T09:54:32.212Z,4.70
2023-01-21T09:57:45.924Z,4.70
2023-01-21T10:00:27.108Z,4.70
2023-01-21T10:03:03.150Z,4.80
2023-01-21T10:05:59.808Z,4.80
2023-01-21T10:08:35.146Z,4.80
2023-01-21T10:11:18.920Z,4.80
2023-01-21T10:14:03.262Z,4.80
2023-01-21T10:16:35.848Z,4.70
2023-01-21T10:19:06.549Z,4.70
2023-01-21T10:21:38.722Z,4.70
2023-01-21T10:24:15.423Z,4.70
2023-01-21T10:26:47.119Z,4.70
2023-01-21T10:29:18.789Z,4.70
2023-01-21T10:31:54.807Z,4.70
2023-01-21T10:34:22.970Z,4.70
2023-01-21T10:37:05.146Z,4.70
2023-01-21T10:39:44.098Z,4.70
2023-01-21T10:42:35.227Z,4.70
2023-01-21T10:45:08.303Z,4.80
2023-01-21T10:47:44.320Z,4.80
2023-01-21T10:50:26.901Z,4.80
2023-01-21T10:53:00.873Z,4.80
2023-01-21T10:55:39.375Z,4.90
2023-01-21T10:58:16.481Z,4.90
2023-01-21T11:00:48.399Z,4.90
2023-01-21T11:03:23.245Z,4.90
2023-01-21T11:05:51.548Z,4.90
2023-01-21T11:08:23.748Z,4.90
2023-01-21T11:10:55.291Z,4.90
2023-01-21T11:13:25.222Z,4.90
2023-01-21T11:15:54.640Z,4.90
2023-01-21T11:18:31.920Z,4.90
2023-01-21T11:21:02.267Z,4.90
2023-01-21T11:23:32.861Z,4.90
2023-01-21T11:26:07.303Z,4.90
2023-01-21T11:28:37.741Z,4.90
2023-01-21T11:31:11.631Z,4.90
2023-01-21T11:33:40.668Z,4.90
2023-01-21T11:36:15.259Z,4.90
2023-01-21T11:38:43.845Z,4.90
2023-01-21T11:41:22.399Z,5.00
2023-01-21T11:43:53.141Z,5.00
2023-01-21T11:46:29.990Z,5.00
2023-01-21T11:49:17.354Z,5.00
2023-01-21T11:51:47.589Z,5.00
2023-01-21T11:54:17.059Z,5.00
2023-01-21T11:56:55.499Z,5.00
2023-01-21T11:59:28.393Z,5.00
2023-01-21T12:02:00.841Z,5.10
2023-01-21T12:04:29.041Z,5.10
2023-01-21T12:07:00.488Z,5.10
2023-01-21T12:09:30.162Z,5.10
2023-01-21T12:12:29.726Z,5.10
2023-01-21T12:15:05.047Z,5.20
2023-01-21T12:17:49.785Z,5.20
2023-01-21T12:20:32.326Z,5.10
2023-01-21T12:23:27.102Z,5.10
2023-01-21T12:26:01.235Z,5.20
2023-01-21T12:28:43.854Z,5.20
2023-01-21T12:31:25.002Z,5.20
2023-01-21T12:33:58.088Z,5.20
2023-01-21T12:36:34.039Z,5.20
2023-01-21T12:39:17.035Z,5.20
2023-01-21T12:41:49.926Z,5.30
2023-01-21T12:44:27.035Z,5.30
2023-01-21T12:47:00.526Z,5.40
2023-01-21T12:49:46.961Z,5.30
2023-01-21T12:52:21.797Z,5.40
2023-01-21T12:54:58.640Z,5.40
2023-01-21T12:57:32.936Z,5.40
2023-01-21T13:00:06.894Z,5.40
2023-01-21T13:02:42.359Z,5.40
2023-01-21T13:05:15.453Z,5.40
2023-01-21T13:07:49.849Z,5.50
2023-01-21T13:10:23.447Z,5.50
2023-01-21T13:12:57.493Z,5.60
2023-01-21T13:15:31.332Z,5.60
2023-01-21T13:18:04.914Z,5.60
2023-01-21T13:20:38.422Z,5.70
2023-01-21T13:23:16.326Z,5.70
2023-01-21T13:25:51.784Z,5.70
2023-01-21T13:28:29.202Z,5.70
2023-01-21T13:31:03.952Z,5.80
2023-01-21T13:33:47.521Z,5.70
2023-01-21T13:36:27.661Z,5.70
2023-01-21T13:39:03.541Z,5.70
2023-01-21T13:41:45.739Z,5.70
2023-01-21T13:44:40.055Z,5.70
2023-01-21T13:47:16.497Z,5.70
2023-01-21T13:50:20.349Z,5.70
2023-01-21T13:53:12.753Z,5.70
2023-01-21T13:55:51.451Z,5.80
2023-01-21T13:58:30.212Z,5.80
2023-01-21T14:01:02.790Z,5.70
2023-01-21T14:03:39.140Z,5.70
2023-01-21T14:06:12.344Z,5.70
2023-01-21T14:08:48.035Z,5.80
2023-01-21T14:11:21.573Z,5.70
2023-01-21T14:14:15.447Z,5.80
2023-01-21T14:17:07.215Z,5.70
2023-01-21T14:20:09.932Z,5.80
2023-01-21T14:23:06.756Z,5.70
2023-01-21T14:25:51.031Z,5.70
2023-01-21T14:28:26.926Z,5.70
2023-01-21T14:31:02.743Z,5.70
2023-01-21T14:33:44.199Z,5.70
2023-01-21T14:36:17.202Z,5.70
2023-01-21T14:39:01.982Z,5.70
2023-01-21T14:42:09.165Z,5.70
2023-01-21T14:44:39.769Z,5.70
2023-01-21T14:47:42.332Z,5.70
2023-01-21T14:50:11.248Z,5.70
2023-01-21T14:52:44.902Z,5.70
2023-01-21T14:55:32.644Z,5.70
2023-01-21T14:58:02.513Z,5.60
2023-01-21T15:00:33.739Z,5.70
2023-01-21T15:03:15.320Z,5.60
2023-01-21T15:05:45.707Z,5.60
2023-01-21T15:08:22.966Z,5.60
2023-01-21T15:10:56.808Z,5.60
2023-01-21T15:13:36.129Z,5.60
2023-01-21T15:16:08.865Z,5.60
2023-01-21T15:18:39.937Z,5.60
2023-01-21T15:21:37.419Z,5.60
2023-01-21T15:24:26.729Z,5.70
2023-01-21T15:27:21.492Z,5.60
2023-01-21T15:30:27.823Z,5.60
2023-01-21T15:32:56.888Z,5.60
2023-01-21T15:35:31.495Z,5.60
2023-01-21T15:38:03.524Z,5.60
2023-01-21T15:40:38.604Z,5.60
2023-01-21T15:43:15.815Z,5.60
2023-01-21T15:45:51.732Z,5.60
2023-01-21T15:48:44.193Z,5.60
2023-01-21T15:51:21.056Z,5.60
2023-01-21T15:54:16.582Z,5.50
2023-01-21T15:56:58.131Z,5.60
2023-01-21T15:59:46.011Z,5.50
2023-01-21T16:02:21.907Z,5.50
2023-01-21T16:05:07.806Z,5.50
2023-01-21T16:07:46.682Z,5.50
2023-01-21T16:10:23.193Z,5.50
2023-01-21T16:13:00.938Z,5.50
2023-01-21T16:15:41.686Z,5.50
2023-01-21T16:18:22.639Z,5.50
2023-01-21T16:20:54.878Z,5.50
2023-01-21T16:23:26.512Z,5.50
2023-01-21T16:25:55.160Z,5.50
2023-01-21T16:28:23.345Z,5.50
2023-01-21T16:30:57.674Z,5.50
2023-01-21T16:33:26.073Z,5.40
2023-01-21T16:35:57.294Z,5.40
2023-01-21T16:38:27.114Z,5.40
2023-01-21T16:41:24.199Z,5.40
2023-01-21T16:43:55.516Z,5.40
2023-01-21T16:46:27.711Z,5.40
2023-01-21T16:48:58.391Z,5.40
2023-01-21T16:51:30.138Z,5.30
2023-01-21T16:54:23.969Z,5.30
2023-01-21T16:56:55.261Z,5.30
2023-01-21T16:59:26.594Z,5.20
2023-01-21T17:01:57.234Z,5.20
2023-01-21T17:04:25.678Z,5.20
2023-01-21T17:06:54.865Z,5.20
2023-01-21T17:09:33.303Z,5.20
2023-01-21T17:12:06.375Z,5.10
2023-01-21T17:14:36.214Z,5.20
2023-01-21T17:17:08.743Z,5.20
2023-01-21T17:19:38.813Z,5.10
2023-01-21T17:22:14.963Z,5.20
2023-01-21T17:24:56.958Z,5.20
2023-01-21T17:27:26.418Z,5.20
2023-01-21T17:29:54.681Z,5.20
2023-01-21T17:32:28.929Z,5.20
2023-01-21T17:35:12.959Z,5.20
2023-01-21T17:37:47.169Z,5.20
2023-01-21T17:40:34.357Z,5.20
2023-01-21T17:43:15.335Z,5.30
2023-01-21T17:45:45.832Z,5.30
2023-01-21T17:48:24.698Z,5.30
2023-01-21T17:50:53.968Z,5.30
2023-01-21T17:53:27.327Z,5.30
2023-01-21T17:56:01.589Z,5.30
2023-01-21T17:58:52.007Z,5.30
2023-01-21T18:01:21.640Z,5.30
2023-01-21T18:03:51.172Z,5.30
2023-01-21T18:06:21.708Z,5.30
2023-01-21T18:08:50.985Z,5.30
2023-01-21T18:11:20.904Z,5.30
2023-01-21T18:13:50.072Z,5.30
2023-01-21T18:16:18.312Z,5.30
2023-01-21T18:18:46.605Z,5.30
2023-01-21T18:21:22.743Z,5.30
2023-01-21T18:23:51.072Z,5.30
2023-01-21T18:26:27.547Z,5.30
2023-01-21T18:28:55.817Z,5.20
2023-01-21T18:31:24.080Z,5.20
2023-01-21T18:33:52.365Z,5.20
2023-01-21T18:36:21.935Z,5.20
2023-01-21T18:38:50.098Z,5.20
2023-01-21T18:41:18.230Z,5.20
2023-01-21T18:43:46.373Z,5.20
2023-01-21T18:46:16.235Z,5.30
2023-01-21T18:48:44.568Z,5.30
2023-01-21T18:51:14.957Z,5.30
2023-01-21T18:53:44.778Z,5.30
2023-01-21T18:56:14.971Z,5.30
2023-01-21T18:58:43.368Z,5.30
2023-01-21T19:01:22.612Z,5.30
2023-01-21T19:03:54.386Z,5.30
2023-01-21T19:06:23.542Z,5.30
2023-01-21T19:08:54.968Z,5.30
2023-01-21T19:11:23.279Z,5.30
2023-01-21T19:13:51.449Z,5.30
2023-01-21T19:16:20.810Z,5.40
2023-01-21T19:18:49.003Z,5.40
2023-01-21T19:21:17.164Z,5.40
2023-01-21T19:23:45.368Z,5.50
2023-01-21T19:26:15.332Z,5.50
2023-01-21T19:28:43.574Z,5.50
2023-01-21T19:31:11.833Z,5.50
2023-01-21T19:33:43.110Z,5.50
2023-01-21T19:36:16.421Z,5.50
2023-01-21T19:38:48.255Z,5.50
2023-01-21T19:41:17.811Z,5.50
2023-01-21T19:43:46.214Z,5.50
2023-01-21T19:46:14.464Z,5.50
2023-01-21T19:48:43.019Z,5.60
2023-01-21T19:51:11.547Z,5.60
2023-01-21T19:53:39.740Z,5.60
2023-01-21T19:56:09.033Z,5.70
2023-01-21T19:58:42.132Z,5.70
2023-01-21T20:01:10.358Z,5.70
2023-01-21T20:03:41.552Z,5.70
2023-01-21T20:06:14.123Z,5.70
2023-01-21T20:08:43.599Z,5.70
2023-01-21T20:11:11.775Z,5.60
2023-01-21T20:13:41.348Z,5.60
2023-01-21T20:16:16.030Z,5.60
2023-01-21T20:18:46.168Z,5.60
2023-01-21T20:21:14.381Z,5.60
2023-01-21T20:23:43.172Z,5.60
2023-01-21T20:26:17.574Z,5.70
2023-01-21T20:28:51.448Z,5.70
2023-01-21T20:31:20.165Z,5.70
2023-01-21T20:33:48.519Z,5.70
2023-01-21T20:36:20.074Z,5.80
2023-01-21T20:38:48.485Z,5.80
2023-01-21T20:41:16.696Z,5.80
2023-01-21T20:43:46.635Z,5.80
2023-01-21T20:46:19.356Z,5.90
2023-01-21T20:48:47.964Z,5.90
2023-01-21T20:51:16.291Z,5.90
2023-01-21T20:53:44.524Z,5.90
2023-01-21T20:56:19.565Z,5.90
2023-01-21T20:58:49.803Z,5.90
2023-01-21T21:01:20.777Z,5.90
2023-01-21T21:03:49.604Z,5.90
2023-01-21T21:06:19.575Z,5.80
2023-01-21T21:08:47.786Z,5.80
2023-01-21T21:11:17.241Z,5.80
2023-01-21T21:13:48.211Z,5.80
2023-01-21T21:16:21.502Z,5.70
2023-01-21T21:18:50.397Z,5.70
2023-01-21T21:21:22.492Z,5.70
2023-01-21T21:23:52.342Z,5.70
2023-01-21T21:26:23.353Z,5.70
2023-01-21T21:28:54.616Z,5.70
2023-01-21T21:31:25.216Z,5.60
2023-01-21T21:33:53.770Z,5.60
2023-01-21T21:36:23.817Z,5.60
2023-01-21T21:38:55.561Z,5.60
2023-01-21T21:41:43.067Z,5.60
2023-01-21T21:44:12.245Z,5.60
2023-01-21T21:47:00.049Z,5.50
2023-01-21T21:49:28.776Z,5.50
2023-01-21T21:51:57.075Z,5.50
2023-01-21T21:54:25.273Z,5.40
2023-01-21T21:56:53.524Z,5.40
2023-01-21T21:59:21.717Z,5.40
2023-01-21T22:01:51.332Z,5.40
2023-01-21T22:04:21.213Z,5.30
2023-01-21T22:06:49.435Z,5.30
2023-01-21T22:09:17.784Z,5.30
2023-01-21T22:11:45.963Z,5.20
2023-01-21T22:14:14.142Z,5.30
2023-01-21T22:16:42.413Z,5.30
2023-01-21T22:19:13.014Z,5.30
2023-01-21T22:21:41.185Z,5.30
2023-01-21T22:24:10.655Z,5.20
2023-01-21T22:26:39.183Z,5.20
2023-01-21T22:29:07.676Z,5.20
2023-01-21T22:31:36.182Z,5.20
2023-01-21T22:34:05.213Z,5.20
2023-01-21T22:36:34.867Z,5.20
2023-01-21T22:39:03.275Z,5.20
2023-01-21T22:41:31.823Z,5.20
2023-01-21T22:43:59.997Z,5.20
2023-01-21T22:46:30.494Z,5.20
2023-01-21T22:48:59.102Z,5.20
2023-01-21T22:51:27.773Z,5.20
2023-01-21T22:53:57.726Z,5.20
2023-01-21T22:56:45.056Z,5.20
2023-01-21T22:59:14.543Z,5.20
2023-01-21T23:01:42.877Z,5.20
2023-01-21T23:04:11.527Z,5.20
2023-01-21T23:06:39.791Z,5.20
2023-01-21T23:09:11.505Z,5.20
2023-01-21T23:11:39.733Z,5.20
2023-01-21T23:14:09.520Z,5.20
2023-01-21T23:16:37.725Z,5.20
2023-01-21T23:19:05.972Z,5.30
2023-01-21T23:21:34.312Z,5.30
2023-01-21T23:24:02.528Z,5.30
2023-01-21T23:26:32.316Z,5.30
2023-01-21T23:29:00.558Z,5.40
2023-01-21T23:31:28.841Z,5.30
2023-01-21T23:33:57.381Z,5.30
2023-01-21T23:36:25.551Z,5.40
2023-01-21T23:38:53.690Z,5.40
2023-01-21T23:41:21.860Z,5.40
2023-01-21T23:43:51.388Z,5.40
2023-01-21T23:46:20.456Z,5.40
2023-01-21T23:48:49.181Z,5.40
2023-01-21T23:51:18.460Z,5.40
2023-01-21T23:53:47.718Z,5.40
2023-01-21T23:56:18.163Z,5.40
2023-01-21T23:58:46.342Z,5.40
